Swords, Ireland
Current Conditions -  °F | °C
As of 5:30 AM on Thursday 18 Dec 2014 (Local Time) from EIDW Reporting Station
Drizzle Drizzle  
Wind Chill: 11°   Ceiling: 800
Heat Index: 11°   Visibility: 5mi
Dew Point: 11°   Wind: 16mph
Humidity: 100%   Direction: 220°SW
Pressure: 29.59"   Gusts: NA
Location:  53.45°N, 6.22°W
Report Text: EIDW 180530Z 22014KT 8000 -DZ FEW004 BKN008 BKN012 11/11 Q1002 TEMPO 4000 BKN005
Loading
Personal Weather Stations






























Interactive Weather Map New forecast layout! Learn more

10-Day Weather Forecast

Advertisements
Track Severe Weather on mobile